Time;durP1;ratioP1;P1;durP2;ratioP2;P2;SDS_P1;SDS_P2;PMS_P1;PMS_P2;Temp;Humidity;BMP_temperature;BMP_pressure;BME280_temperature;BME280_humidity;BME280_pressure;Samples;Min_cycle;Max_cycle;Signal;HPM_P1;HPM_P2
2023/05/20 00:00:53;;;;;;;17.50;9.00;;;;;;;13.77;76.46;101173.95;103422;1251;138657;-66
2023/05/20 00:03:21;;;;;;;12.80;7.60;;;;;;;13.73;76.40;101167.27;103545;1251;110694;-66
2023/05/20 00:05:49;;;;;;;11.20;7.00;;;;;;;13.68;76.49;101168.65;103443;1250;138310;-65
2023/05/20 00:08:25;;;;;;;12.70;7.80;;;;;;;13.64;76.41;101166.52;103493;1254;96778;-66
2023/05/20 00:10:53;;;;;;;13.20;7.30;;;;;;;13.59;76.29;101166.45;104733;1251;107648;-67
2023/05/20 00:13:20;;;;;;;11.20;7.40;;;;;;;13.55;76.30;101167.09;104309;1251;138177;-66
2023/05/20 00:15:47;;;;;;;10.10;6.80;;;;;;;13.53;76.35;101162.45;103589;1254;109727;-66
2023/05/20 00:18:17;;;;;;;12.20;6.90;;;;;;;13.50;76.27;101166.39;104690;1251;138917;-67
2023/05/20 00:20:44;;;;;;;11.40;6.20;;;;;;;13.48;76.42;101158.95;104617;1251;96838;-67
2023/05/20 00:23:12;;;;;;;9.50;6.60;;;;;;;13.47;76.35;101155.13;103439;1251;138404;-67
2023/05/20 00:25:39;;;;;;;12.70;7.20;;;;;;;13.46;76.36;101160.22;103360;1254;96431;-68
2023/05/20 00:28:07;;;;;;;16.90;7.30;;;;;;;13.43;76.43;101161.52;103408;1251;111031;-68
2023/05/20 00:30:34;;;;;;;8.70;6.30;;;;;;;13.42;76.50;101157.36;103301;1251;138385;-68
2023/05/20 00:33:02;;;;;;;10.90;6.80;;;;;;;13.41;76.61;101160.36;103307;1251;96490;-68
2023/05/20 00:35:29;;;;;;;11.20;7.30;;;;;;;13.41;76.68;101158.98;103373;1254;138450;-68
2023/05/20 00:37:56;;;;;;;10.60;5.90;;;;;;;13.39;76.71;101158.86;103441;1251;96395;-67
2023/05/20 00:40:24;;;;;;;13.00;7.00;;;;;;;13.39;76.71;101152.73;103454;1251;109363;-68
2023/05/20 00:42:52;;;;;;;11.10;6.70;;;;;;;13.39;76.78;101153.46;103349;1253;138443;-66
2023/05/20 00:45:19;;;;;;;11.00;6.10;;;;;;;13.37;76.63;101152.97;103832;1251;96431;-66
2023/05/20 00:47:46;;;;;;;10.70;6.50;;;;;;;13.36;76.74;101152.14;103388;1251;138311;-67
2023/05/20 00:50:14;;;;;;;10.80;6.40;;;;;;;13.35;76.65;101150.25;103501;1251;96428;-66
2023/05/20 00:52:44;;;;;;;10.40;6.30;;;;;;;13.32;76.69;101156.63;104305;1251;109280;-67
2023/05/20 00:55:12;;;;;;;11.10;7.00;;;;;;;13.29;76.65;101155.12;103386;1251;138409;-67
2023/05/20 00:57:40;;;;;;;10.20;6.20;;;;;;;13.27;76.70;101156.55;103832;1251;97009;-67
2023/05/20 01:00:10;;;;;;;11.70;5.70;;;;;;;13.25;76.82;101155.39;103268;1257;138348;-66
2023/05/20 01:02:37;;;;;;;10.20;6.30;;;;;;;13.24;76.79;101156.99;104122;1251;96459;-67
2023/05/20 01:05:06;;;;;;;15.40;6.40;;;;;;;13.22;76.73;101155.84;103977;1254;109081;-67
2023/05/20 01:07:34;;;;;;;10.90;6.60;;;;;;;13.21;76.70;101158.66;103586;1251;107902;-67
2023/05/20 01:10:02;;;;;;;12.80;6.20;;;;;;;13.19;76.82;101159.25;103434;1255;96446;-67
2023/05/20 01:12:35;;;;;;;14.80;6.50;;;;;;;13.18;76.84;101156.67;103532;1251;138220;-67
2023/05/20 01:15:08;;;;;;;11.20;6.40;;;;;;;13.17;76.96;101157.73;103894;1256;96470;-67
2023/05/20 01:17:40;;;;;;;13.40;6.40;;;;;;;13.15;76.89;101156.38;104056;1251;138325;-66
2023/05/20 01:20:11;;;;;;;11.00;6.10;;;;;;;13.14;76.99;101156.94;103615;1254;106765;-67
2023/05/20 01:22:46;;;;;;;11.00;6.60;;;;;;;13.13;77.00;101156.27;103778;1251;96468;-66
2023/05/20 01:25:14;;;;;;;8.90;6.10;;;;;;;13.13;77.13;101156.79;103956;1251;138783;-67
2023/05/20 01:27:41;;;;;;;9.60;6.20;;;;;;;13.12;76.99;101159.60;103347;1254;96383;-67
2023/05/20 01:30:10;;;;;;;7.20;5.70;;;;;;;13.11;76.97;101159.28;103294;1251;138006;-67
2023/05/20 01:32:43;;;;;;;12.60;6.00;;;;;;;13.09;76.99;101156.70;104281;1251;108143;-67
2023/05/20 01:35:11;;;;;;;9.30;6.10;;;;;;;13.08;77.05;101160.56;103842;1251;138542;-68
2023/05/20 01:37:43;;;;;;;10.40;6.10;;;;;;;13.07;76.91;101157.64;103391;1254;108107;-67
2023/05/20 01:40:14;;;;;;;9.00;5.30;;;;;;;13.05;77.00;101155.42;103384;1251;96440;-67
2023/05/20 01:42:44;;;;;;;11.00;5.60;;;;;;;13.04;76.94;101151.80;103266;1251;138040;-67
2023/05/20 01:45:13;;;;;;;11.00;5.50;;;;;;;13.03;76.91;101153.40;103438;1254;108107;-67
2023/05/20 01:47:40;;;;;;;8.30;5.30;;;;;;;13.02;77.03;101152.90;104747;1251;138449;-66
2023/05/20 01:50:10;;;;;;;10.30;5.60;;;;;;;13.00;76.96;101150.33;104821;1254;107401;-67
2023/05/20 01:52:37;;;;;;;9.40;5.00;;;;;;;12.98;76.96;101148.64;104787;1250;94689;-67
2023/05/20 01:55:05;;;;;;;6.80;4.90;;;;;;;12.98;76.96;101144.29;104614;1250;139531;-67
2023/05/20 01:57:32;;;;;;;8.40;5.40;;;;;;;12.97;76.83;101142.55;104669;1251;108253;-67
2023/05/20 02:00:00;;;;;;;8.30;5.50;;;;;;;12.96;76.85;101136.14;104699;1252;140150;-67
2023/05/20 02:02:27;;;;;;;8.60;5.20;;;;;;;12.95;76.98;101133.38;104153;1257;106403;-67
2023/05/20 02:04:56;;;;;;;7.40;5.10;;;;;;;12.95;77.05;101132.51;104781;1251;94507;-67
2023/05/20 02:07:23;;;;;;;10.60;5.30;;;;;;;12.95;77.10;101133.54;104643;1251;138586;-67
2023/05/20 02:09:51;;;;;;;9.30;5.10;;;;;;;12.95;77.12;101132.83;104650;1251;106197;-67
2023/05/20 02:12:18;;;;;;;8.70;5.50;;;;;;;12.96;76.97;101135.08;104588;1251;138084;-67
2023/05/20 02:14:46;;;;;;;9.40;5.50;;;;;;;12.97;77.04;101134.88;104773;1250;107383;-67
2023/05/20 02:17:15;;;;;;;10.50;5.40;;;;;;;12.96;76.88;101137.36;104625;1251;138243;-67
2023/05/20 02:19:42;;;;;;;10.60;5.70;;;;;;;12.95;76.99;101138.27;104684;1251;110914;-66
2023/05/20 02:22:10;;;;;;;11.00;5.40;;;;;;;12.94;77.04;101140.02;104106;1251;108285;-66
2023/05/20 02:24:37;;;;;;;11.10;5.00;;;;;;;12.93;76.97;101140.93;103226;1251;138550;-66
2023/05/20 02:27:05;;;;;;;9.30;5.10;;;;;;;12.92;76.85;101142.52;103905;1251;109238;-66
2023/05/20 02:29:33;;;;;;;9.70;5.10;;;;;;;12.90;76.82;101143.80;103982;1251;138310;-67
2023/05/20 02:32:01;;;;;;;9.80;5.60;;;;;;;12.89;77.00;101146.08;103479;1251;109976;-67
2023/05/20 02:34:30;;;;;;;8.90;5.20;;;;;;;12.89;77.13;101142.42;103680;1254;107566;-66
2023/05/20 02:36:57;;;;;;;9.50;5.20;;;;;;;12.90;77.06;101144.84;103866;1252;139210;-67
2023/05/20 02:39:25;;;;;;;9.70;4.70;;;;;;;12.89;76.91;101150.63;103313;1251;108224;-67
2023/05/20 02:41:52;;;;;;;8.90;5.00;;;;;;;12.86;76.82;101147.90;103200;1251;138240;-66
2023/05/20 02:44:20;;;;;;;6.20;4.60;;;;;;;12.86;76.76;101153.35;103491;1254;109372;-67
2023/05/20 02:46:47;;;;;;;11.90;6.10;;;;;;;12.85;76.87;101153.00;103494;1254;108159;-66
2023/05/20 02:49:15;;;;;;;13.20;4.90;;;;;;;12.86;76.86;101155.95;103386;1251;139209;-66
2023/05/20 02:51:43;;;;;;;8.70;4.70;;;;;;;12.87;76.96;101152.10;103490;1251;107758;-67
2023/05/20 02:54:10;;;;;;;7.60;4.90;;;;;;;12.88;76.96;101151.71;103426;1251;138298;-67
2023/05/20 02:56:38;;;;;;;9.40;4.30;;;;;;;12.88;76.98;101149.60;103346;1251;110778;-66
2023/05/20 02:59:06;;;;;;;8.40;5.00;;;;;;;12.88;76.92;101147.85;103691;1254;106605;-66
2023/05/20 03:01:34;;;;;;;9.80;5.10;;;;;;;12.90;76.82;101146.77;103424;1251;96503;-67
2023/05/20 03:04:01;;;;;;;8.80;5.50;;;;;;;12.90;76.85;101149.90;104762;1251;108175;-67
2023/05/20 03:06:30;;;;;;;10.90;5.50;;;;;;;12.87;76.61;101146.32;103703;1253;138260;-66
2023/05/20 03:08:58;;;;;;;8.60;5.30;;;;;;;12.88;76.72;101147.69;103532;1251;110519;-65
2023/05/20 03:11:25;;;;;;;9.80;5.70;;;;;;;12.89;76.70;101144.52;103248;1253;138409;-66
2023/05/20 03:13:53;;;;;;;13.60;6.20;;;;;;;12.91;76.65;101144.28;103471;1252;96350;-66
2023/05/20 03:16:21;;;;;;;11.30;6.20;;;;;;;12.93;76.75;101146.86;103579;1251;107384;-65
2023/05/20 03:18:49;;;;;;;11.20;6.10;;;;;;;12.94;76.65;101144.75;103462;1251;139020;-65
2023/05/20 03:21:17;;;;;;;10.70;5.90;;;;;;;12.95;76.60;101148.04;103396;1251;110980;-65
2023/05/20 03:23:47;;;;;;;8.70;5.10;;;;;;;12.97;76.66;101151.83;103347;1250;139362;-66
2023/05/20 03:26:15;;;;;;;7.30;5.10;;;;;;;12.99;76.74;101152.98;103520;1252;96406;-66
2023/05/20 03:28:42;;;;;;;10.00;5.50;;;;;;;13.01;76.74;101153.79;103594;1251;107751;-66
2023/05/20 03:31:10;;;;;;;9.20;5.40;;;;;;;13.03;76.75;101153.92;103433;1251;138292;-66
2023/05/20 03:33:48;;;;;;;6.80;4.70;;;;;;;13.06;76.64;101156.27;103515;1251;111311;-66
2023/05/20 03:36:16;;;;;;;9.30;4.90;;;;;;;13.09;76.58;101153.74;103611;1251;138171;-66
2023/05/20 03:38:44;;;;;;;8.20;4.50;;;;;;;13.11;76.47;101156.67;103905;1253;96355;-67
2023/05/20 03:41:12;;;;;;;11.20;4.70;;;;;;;13.13;76.38;101155.20;103439;1251;138573;-67
2023/05/20 03:43:39;;;;;;;7.90;4.50;;;;;;;13.15;76.35;101155.33;104236;1251;96437;-66
2023/05/20 03:46:06;;;;;;;10.30;4.50;;;;;;;13.18;76.28;101153.33;103444;1252;110320;-66
2023/05/20 03:48:34;;;;;;;9.20;4.30;;;;;;;13.23;76.27;101151.46;103915;1251;138362;-66
2023/05/20 03:51:02;;;;;;;9.80;4.50;;;;;;;13.26;76.21;101148.21;103542;1254;97043;-67
2023/05/20 03:53:30;;;;;;;9.30;4.70;;;;;;;13.32;76.21;101150.34;103187;1257;139983;-66
2023/05/20 03:55:58;;;;;;;7.10;4.80;;;;;;;13.36;76.12;101150.73;103872;1253;96427;-66
2023/05/20 03:58:28;;;;;;;9.90;5.20;;;;;;;13.41;76.12;101152.69;103267;1255;109524;-66
2023/05/20 04:00:55;;;;;;;8.30;4.70;;;;;;;13.46;76.00;101146.60;103316;1256;138720;-67
2023/05/20 04:03:23;;;;;;;10.90;5.00;;;;;;;13.50;75.79;101145.26;103217;1254;97127;-66
2023/05/20 04:05:51;;;;;;;6.90;4.20;;;;;;;13.54;75.70;101145.29;103183;1254;138232;-66
2023/05/20 04:08:20;;;;;;;7.70;4.70;;;;;;;13.61;75.62;101150.31;103505;1250;96432;-66
2023/05/20 04:10:48;;;;;;;6.30;4.40;;;;;;;13.68;75.54;101146.28;104168;1252;110546;-67
2023/05/20 04:13:16;;;;;;;8.20;4.40;;;;;;;13.77;75.46;101147.92;103298;1253;138248;-67
2023/05/20 04:15:43;;;;;;;10.10;4.80;;;;;;;13.84;75.10;101148.21;103771;1253;98198;-66
2023/05/20 04:18:12;;;;;;;9.30;4.60;;;;;;;13.93;75.22;101152.66;103459;1252;138148;-64
2023/05/20 04:20:41;;;;;;;9.00;4.50;;;;;;;14.03;75.22;101153.23;103788;1251;95399;-64
2023/05/20 04:23:08;;;;;;;8.00;4.40;;;;;;;14.13;75.16;101152.02;103656;1252;138190;-64
2023/05/20 04:25:36;;;;;;;11.20;4.60;;;;;;;14.24;74.90;101151.50;104454;1252;106932;-65
2023/05/20 04:28:04;;;;;;;9.10;4.40;;;;;;;14.35;74.66;101158.45;103447;1252;96431;-64
2023/05/20 04:30:32;;;;;;;7.60;4.40;;;;;;;14.45;74.36;101160.08;103792;1252;137984;-64
2023/05/20 04:33:01;;;;;;;9.90;4.10;;;;;;;14.55;74.06;101164.50;103480;1253;96298;-64
2023/05/20 04:35:28;;;;;;;6.60;4.30;;;;;;;14.63;73.81;101166.31;103749;1257;138402;-63
2023/05/20 04:37:58;;;;;;;6.90;4.20;;;;;;;14.70;73.77;101165.36;103402;1250;106469;-64
2023/05/20 04:40:26;;;;;;;9.80;4.10;;;;;;;14.79;73.46;101159.81;103895;1252;96482;-64
2023/05/20 04:42:54;;;;;;;9.10;4.50;;;;;;;14.87;73.33;101156.70;103481;1252;138174;-63
2023/05/20 04:45:22;;;;;;;9.10;5.30;;;;;;;14.96;73.18;101152.72;103288;1258;96370;-64
2023/05/20 04:47:52;;;;;;;9.50;4.20;;;;;;;15.06;73.00;101154.96;104353;1254;138023;-64
2023/05/20 04:50:20;;;;;;;6.60;4.20;;;;;;;15.19;72.78;101150.66;103359;1253;107640;-63
2023/05/20 04:52:48;;;;;;;10.40;4.70;;;;;;;15.32;72.57;101149.30;103362;1254;97152;-63
2023/05/20 04:55:15;;;;;;;7.50;4.50;;;;;;;15.43;72.23;101142.71;103243;1257;138321;-63
2023/05/20 04:57:43;;;;;;;9.00;4.10;;;;;;;15.54;71.86;101140.02;103298;1254;96476;-63
2023/05/20 05:00:13;;;;;;;7.90;4.50;;;;;;;15.64;71.45;101144.44;103972;1254;137971;-63
2023/05/20 05:02:40;;;;;;;6.10;4.20;;;;;;;15.70;71.23;101146.79;103573;1254;107633;-63
2023/05/20 05:05:10;;;;;;;7.60;4.50;;;;;;;15.80;71.07;101146.43;103323;1254;96457;-63
2023/05/20 05:07:37;;;;;;;8.40;4.60;;;;;;;15.91;70.87;101150.89;103711;1254;108849;-64
2023/05/20 05:10:05;;;;;;;8.40;4.60;;;;;;;16.03;70.54;101150.60;103319;1254;97210;-64
2023/05/20 05:12:33;;;;;;;8.60;4.50;;;;;;;16.11;70.32;101152.86;104579;1254;137903;-65
2023/05/20 05:15:00;;;;;;;10.20;4.20;;;;;;;16.25;70.20;101151.27;103321;1254;105397;-63
2023/05/20 05:17:28;;;;;;;8.40;4.60;;;;;;;16.42;70.08;101151.08;103212;1254;139079;-65
2023/05/20 05:19:56;;;;;;;7.40;4.20;;;;;;;16.61;69.67;101151.32;103371;1254;107609;-65
2023/05/20 05:22:24;;;;;;;9.60;4.60;;;;;;;16.80;69.19;101151.77;103268;1254;96513;-65
2023/05/20 05:24:54;;;;;;;6.70;4.70;;;;;;;17.00;69.00;101153.50;103241;1253;137999;-65
2023/05/20 05:27:22;;;;;;;11.10;4.80;;;;;;;17.32;68.71;101145.90;104685;1254;108707;-65
2023/05/20 05:29:50;;;;;;;6.80;4.50;;;;;;;17.65;68.02;101147.19;104157;1258;138528;-65
2023/05/20 05:32:17;;;;;;;11.10;5.60;;;;;;;17.89;67.38;101148.54;103558;1257;108801;-65
2023/05/20 05:34:45;;;;;;;7.10;4.00;;;;;;;18.13;67.00;101147.19;103350;1254;96524;-65
2023/05/20 05:37:12;;;;;;;11.40;4.50;;;;;;;18.37;66.35;101152.85;103402;1256;137771;-65
2023/05/20 05:39:40;;;;;;;9.10;4.70;;;;;;;18.68;65.43;101153.42;103404;1256;109261;-65
2023/05/20 05:42:08;;;;;;;6.90;3.90;;;;;;;18.78;64.76;101152.37;104038;1253;137842;-65
2023/05/20 05:44:35;;;;;;;7.20;4.80;;;;;;;18.83;64.51;101153.86;103406;1253;108579;-65
2023/05/20 05:47:04;;;;;;;9.70;4.80;;;;;;;18.94;64.25;101155.73;103968;1252;96511;-65
2023/05/20 05:49:32;;;;;;;6.70;4.20;;;;;;;19.07;63.54;101158.05;103911;1252;111954;-65
2023/05/20 05:52:00;;;;;;;7.60;4.20;;;;;;;19.21;63.41;101158.02;103339;1254;108189;-65
2023/05/20 05:54:28;;;;;;;9.10;4.90;;;;;;;19.39;63.05;101154.73;103595;1252;137478;-64
2023/05/20 05:56:56;;;;;;;10.50;4.40;;;;;;;19.64;62.69;101155.88;104301;1252;107236;-65
2023/05/20 05:59:24;;;;;;;10.10;4.70;;;;;;;19.84;62.29;101154.38;103227;1257;137838;-65
2023/05/20 06:01:52;;;;;;;9.50;5.10;;;;;;;20.00;61.60;101151.77;103495;1252;109300;-64
2023/05/20 06:04:20;;;;;;;9.80;4.70;;;;;;;20.16;60.96;101150.67;103313;1253;107605;-64
2023/05/20 06:06:49;;;;;;;12.70;7.70;;;;;;;20.30;60.69;101152.98;104263;1252;137989;-64
2023/05/20 06:09:16;;;;;;;8.80;4.90;;;;;;;20.49;60.44;101153.53;103341;1252;108191;-64
2023/05/20 06:11:44;;;;;;;6.90;4.80;;;;;;;20.89;60.05;101151.79;103175;1252;137970;-64
2023/05/20 06:14:11;;;;;;;9.80;4.70;;;;;;;21.57;59.03;101145.27;103572;1253;110105;-65
2023/05/20 06:16:39;;;;;;;7.70;4.60;;;;;;;21.86;57.71;101143.44;103329;1252;106957;-65
2023/05/20 06:19:08;;;;;;;6.50;4.50;;;;;;;21.91;57.04;101144.36;103299;1252;138005;-64
2023/05/20 06:21:35;;;;;;;19.50;10.20;;;;;;;21.96;56.95;101147.74;103555;1255;107462;-65
2023/05/20 06:24:03;;;;;;;9.70;5.60;;;;;;;22.09;56.67;101141.77;103604;1256;138163;-64
2023/05/20 06:26:31;;;;;;;9.00;5.40;;;;;;;22.41;56.06;101144.73;103536;1252;112220;-64
2023/05/20 06:28:58;;;;;;;18.80;11.50;;;;;;;22.72;55.40;101146.86;104558;1252;107162;-65
2023/05/20 06:31:26;;;;;;;11.00;4.80;;;;;;;22.90;54.87;101141.96;103219;1252;137621;-65
2023/05/20 06:33:54;;;;;;;11.50;5.40;;;;;;;23.03;54.39;101143.91;103412;1252;107436;-65
2023/05/20 06:36:21;;;;;;;7.50;5.00;;;;;;;23.18;53.99;101142.98;103240;1252;137695;-63
2023/05/20 06:38:48;;;;;;;11.70;5.60;;;;;;;23.45;53.84;101132.90;103357;1252;110342;-66
2023/05/20 06:41:16;;;;;;;73.00;61.40;;;;;;;23.79;53.31;101131.33;103376;1252;138235;-61
2023/05/20 06:43:43;;;;;;;9.40;6.00;;;;;;;24.27;52.40;101127.77;103582;1252;96458;-61
2023/05/20 06:46:31;;;;;;;10.60;4.30;;;;;;;24.65;51.56;101125.07;103149;1252;108899;-61
2023/05/20 06:49:03;;;;;;;23.70;5.40;;;;;;;24.94;51.34;101125.30;103146;1256;137776;-63
2023/05/20 06:51:31;;;;;;;27.70;5.50;;;;;;;25.31;50.83;101123.63;103461;1252;109896;-64
2023/05/20 06:53:59;;;;;;;14.60;4.50;;;;;;;25.63;50.38;101121.67;103231;1252;137643;-62
2023/05/20 06:56:26;;;;;;;14.90;4.40;;;;;;;26.46;49.82;101115.86;103245;1258;96583;-60
2023/05/20 06:58:54;;;;;;;13.50;4.30;;;;;;;27.77;48.11;101111.98;103351;1252;109178;-71
2023/05/20 07:01:22;;;;;;;10.50;3.80;;;;;;;28.88;46.56;101112.55;104237;1252;137649;-65
2023/05/20 07:03:50;;;;;;;9.40;4.10;;;;;;;29.90;44.65;101109.81;103144;1252;110925;-65
2023/05/20 07:06:18;;;;;;;11.00;3.70;;;;;;;30.92;42.90;101108.67;103494;1256;137571;-65
2023/05/20 07:08:45;;;;;;;6.80;3.70;;;;;;;31.70;41.70;101101.33;103213;1252;96380;-64
2023/05/20 07:11:13;;;;;;;8.90;3.60;;;;;;;32.69;40.58;101099.50;103820;1258;138328;-67
2023/05/20 07:13:40;;;;;;;7.70;3.40;;;;;;;33.70;39.27;101097.11;103642;1254;96430;-64
2023/05/20 07:16:09;;;;;;;6.30;3.50;;;;;;;34.60;37.92;101096.95;103412;1252;101516;-64
2023/05/20 07:18:39;;;;;;;13.90;4.00;;;;;;;35.46;37.26;101094.48;103852;1254;138077;-66
2023/05/20 07:21:07;;;;;;;12.10;4.10;;;;;;;36.39;36.70;101090.97;103450;1257;96518;-64
2023/05/20 07:23:43;;;;;;;12.10;3.50;;;;;;;37.28;35.00;101090.02;103250;1252;138602;-64
2023/05/20 07:26:11;;;;;;;12.00;3.40;;;;;;;37.99;33.58;101092.43;103419;1254;96447;-63
2023/05/20 07:28:39;;;;;;;5.90;3.20;;;;;;;38.35;32.01;101089.73;103341;1256;103172;-66
2023/05/20 07:31:07;;;;;;;4.70;3.30;;;;;;;38.41;30.68;101090.58;103208;1257;137533;-64
2023/05/20 07:33:41;;;;;;;7.20;3.10;;;;;;;38.36;30.28;101087.35;103371;1252;96493;-65
2023/05/20 07:36:08;;;;;;;12.00;3.20;;;;;;;38.36;30.20;101088.27;103133;1258;137730;-65
2023/05/20 07:38:39;;;;;;;9.20;2.90;;;;;;;38.63;30.08;101082.08;103387;1252;96509;-66
2023/05/20 07:41:11;;;;;;;7.50;3.10;;;;;;;39.07;30.31;101084.65;103926;1252;102053;-65
2023/05/20 07:43:38;;;;;;;9.40;3.10;;;;;;;39.38;29.28;101085.36;103144;1252;100986;-66
2023/05/20 07:46:06;;;;;;;6.20;3.10;;;;;;;39.47;28.77;101084.56;103352;1252;96427;-67
2023/05/20 07:48:33;;;;;;;8.70;3.10;;;;;;;39.60;27.77;101083.40;103233;1257;137360;-66
2023/05/20 07:51:00;;;;;;;10.20;3.60;;;;;;;39.50;27.45;101083.16;103438;1252;96422;-66
2023/05/20 07:53:28;;;;;;;7.40;3.50;;;;;;;39.44;27.71;101083.89;103827;1252;138165;-65
2023/05/20 07:55:57;;;;;;;7.00;2.80;;;;;;;39.19;27.22;101079.48;103256;1258;99982;-65
2023/05/20 07:58:27;;;;;;;6.50;3.10;;;;;;;38.61;26.58;101078.85;103267;1252;96415;-67
2023/05/20 08:00:54;;;;;;;7.40;3.20;;;;;;;37.93;26.97;101076.92;102846;1252;333508;-66
2023/05/20 08:03:22;;;;;;;6.40;2.90;;;;;;;37.42;27.35;101074.64;104626;1252;94832;-65
2023/05/20 08:06:12;;;;;;;11.20;3.30;;;;;;;36.90;26.97;101075.36;103512;1252;137471;-67
2023/05/20 08:08:40;;;;;;;6.30;2.90;;;;;;;36.39;27.06;101075.52;103299;1252;99870;-66
2023/05/20 08:11:11;;;;;;;6.80;3.10;;;;;;;35.92;27.70;101074.44;104646;1252;94930;-67
2023/05/20 08:13:39;;;;;;;3.80;2.80;;;;;;;35.70;27.62;101078.10;103389;1252;100539;-66
2023/05/20 08:16:07;;;;;;;7.20;3.10;;;;;;;35.54;27.33;101081.80;104481;1252;96415;-65
2023/05/20 08:18:36;;;;;;;5.30;3.00;;;;;;;35.41;27.86;101081.63;104488;1252;137764;-65
2023/05/20 08:21:06;;;;;;;5.30;2.80;;;;;;;35.59;28.55;101078.07;103417;1254;100055;-65
2023/05/20 08:23:34;;;;;;;6.90;3.00;;;;;;;35.77;28.27;101076.84;103229;1252;138052;-67
2023/05/20 08:26:07;;;;;;;6.30;2.80;;;;;;;35.94;28.02;101078.48;103426;1256;99701;-66
2023/05/20 08:28:37;;;;;;;7.30;2.90;;;;;;;36.08;28.29;101073.34;103304;1258;96417;-66
2023/05/20 08:31:04;;;;;;;5.20;2.90;;;;;;;36.21;27.79;101071.65;103272;1252;137316;-65
2023/05/20 08:33:32;;;;;;;11.10;2.80;;;;;;;36.22;28.35;101071.08;104278;1252;100224;-66
2023/05/20 08:35:59;;;;;;;142.60;42.90;;;;;;;36.49;28.61;101071.63;103343;1252;137896;-70
2023/05/20 08:38:27;;;;;;;8.90;3.70;;;;;;;36.88;28.54;101074.27;103599;1252;100372;-71
2023/05/20 08:40:57;;;;;;;12.10;2.90;;;;;;;37.23;27.37;101077.37;104030;1252;96473;-69
2023/05/20 08:43:24;;;;;;;10.30;3.60;;;;;;;37.33;27.55;101075.54;103354;1253;137453;-71
2023/05/20 08:45:52;;;;;;;10.40;3.10;;;;;;;37.50;27.33;101071.48;103435;1254;100484;-69
2023/05/20 08:48:22;;;;;;;10.40;3.50;;;;;;;37.68;27.28;101068.96;103116;1252;139244;-64
2023/05/20 08:50:52;;;;;;;8.90;3.40;;;;;;;37.82;27.15;101064.56;103602;1257;100246;-64
2023/05/20 08:53:21;;;;;;;10.80;3.60;;;;;;;37.88;26.62;101065.04;103266;1252;137866;-62
2023/05/20 08:55:56;;;;;;;7.30;2.80;;;;;;;37.74;26.19;101058.52;103481;1256;100949;-62
2023/05/20 08:58:27;;;;;;;11.70;3.30;;;;;;;37.61;26.18;101057.35;103560;1255;99056;-60
2023/05/20 09:00:54;;;;;;;8.50;3.00;;;;;;;37.48;26.55;101058.13;103172;1254;137516;-64
2023/05/20 09:03:22;;;;;;;5.60;2.80;;;;;;;37.32;26.26;101061.85;103311;1252;98754;-64
2023/05/20 09:05:49;;;;;;;5.10;2.90;;;;;;;37.07;26.28;101056.09;103495;1256;138531;-64
2023/05/20 09:08:17;;;;;;;4.80;2.70;;;;;;;36.70;25.77;101054.54;103382;1252;102787;-65
2023/05/20 09:10:44;;;;;;;8.30;3.40;;;;;;;36.15;25.80;101054.42;103468;1252;100691;-65
2023/05/20 09:13:12;;;;;;;8.50;3.00;;;;;;;35.57;26.16;101056.30;103217;1252;137442;-65
2023/05/20 09:15:40;;;;;;;9.90;4.00;;;;;;;35.37;27.06;101052.99;103372;1252;99096;-63
2023/05/20 09:18:09;;;;;;;12.60;3.10;;;;;;;35.24;26.89;101053.86;103229;1252;137357;-64
2023/05/20 09:20:39;;;;;;;5.30;3.00;;;;;;;34.81;26.65;101056.96;103325;1252;102192;-65
2023/05/20 09:23:08;;;;;;;6.20;3.10;;;;;;;34.14;26.64;101052.22;104639;1252;100034;-65
2023/05/20 09:25:37;;;;;;;11.30;3.20;;;;;;;33.58;27.63;101048.05;103420;1252;96437;-65
2023/05/20 09:28:07;;;;;;;11.10;3.40;;;;;;;33.15;28.13;101048.92;103382;1252;98703;-63
2023/05/20 09:30:34;;;;;;;14.70;3.70;;;;;;;32.35;28.82;101050.43;104573;1252;137883;-71
2023/05/20 09:33:04;;;;;;;16.90;3.80;;;;;;;31.64;29.68;101050.00;104723;1252;109860;-62
2023/05/20 09:35:35;;;;;;;11.30;3.50;;;;;;;31.31;30.52;101053.77;104004;1252;137837;-61
2023/05/20 09:38:04;;;;;;;4.90;3.20;;;;;;;31.33;31.57;101049.53;103867;1256;96313;-63
2023/05/20 09:40:32;;;;;;;11.60;3.60;;;;;;;31.66;31.92;101050.52;103333;1254;107822;-65
2023/05/20 09:43:03;;;;;;;7.70;3.50;;;;;;;31.63;31.47;101050.11;103289;1252;137931;-64
2023/05/20 09:45:31;;;;;;;12.30;3.70;;;;;;;31.48;31.67;101046.34;103410;1252;110378;-64
2023/05/20 09:47:59;;;;;;;10.00;3.60;;;;;;;31.39;31.03;101047.96;104579;1252;137601;-64
2023/05/20 09:50:27;;;;;;;8.40;3.60;;;;;;;31.02;31.38;101051.20;104764;1252;94501;-64
2023/05/20 09:52:55;;;;;;;6.00;3.60;;;;;;;30.53;31.58;101050.85;104037;1252;108069;-63
2023/05/20 09:55:24;;;;;;;3.60;3.20;;;;;;;30.00;32.26;101047.63;103261;1252;137492;-64
2023/05/20 09:57:53;;;;;;;9.70;3.70;;;;;;;29.62;32.83;101044.64;103357;1252;111484;-63
2023/05/20 10:00:20;;;;;;;6.00;3.80;;;;;;;29.63;33.73;101045.83;103628;1257;137557;-63
2023/05/20 10:02:50;;;;;;;10.30;4.30;;;;;;;29.59;33.12;101039.27;103408;1252;96424;-63
2023/05/20 10:05:21;;;;;;;7.80;3.80;;;;;;;29.23;33.49;101041.41;103307;1257;137907;-63
2023/05/20 10:08:18;;;;;;;9.00;4.10;;;;;;;28.97;33.81;101040.90;103714;1253;96445;-63
2023/05/20 10:10:51;;;;;;;9.80;4.40;;;;;;;28.79;34.28;101043.63;103298;1252;110529;-63
2023/05/20 10:13:33;;;;;;;11.20;4.20;;;;;;;28.42;34.37;101039.38;103672;1252;138074;-64
2023/05/20 10:16:10;;;;;;;10.70;4.50;;;;;;;27.89;34.87;101043.35;103282;1252;96474;-64
2023/05/20 10:18:48;;;;;;;9.50;4.90;;;;;;;27.47;35.49;101042.40;103162;1252;137462;-63
2023/05/20 10:21:23;;;;;;;9.10;4.20;;;;;;;27.32;36.07;101042.13;103182;1252;96448;-64
2023/05/20 10:23:50;;;;;;;7.80;5.00;;;;;;;27.14;36.45;101037.34;103198;1256;137463;-64
2023/05/20 10:26:20;;;;;;;7.50;4.60;;;;;;;26.94;36.90;101041.25;103356;1256;107741;-64
2023/05/20 10:28:47;;;;;;;9.40;4.90;;;;;;;26.73;36.92;101045.77;103656;1252;96322;-64
2023/05/20 10:31:21;;;;;;;9.40;4.30;;;;;;;26.46;37.22;101044.77;103263;1252;137247;-64
2023/05/20 10:33:49;;;;;;;8.30;5.10;;;;;;;26.36;37.64;101036.10;104228;1252;95470;-64
2023/05/20 10:36:29;;;;;;;8.30;4.50;;;;;;;26.55;38.07;101033.77;103297;1254;137275;-62
2023/05/20 10:38:59;;;;;;;7.30;4.70;;;;;;;26.78;38.28;101026.94;103289;1253;106799;-61
2023/05/20 10:41:28;;;;;;;9.40;4.40;;;;;;;26.74;37.67;101026.08;103941;1256;137872;-63
2023/05/20 10:44:03;;;;;;;9.40;4.20;;;;;;;26.60;37.80;101024.84;103426;1252;107698;-66
2023/05/20 10:46:31;;;;;;;9.70;4.80;;;;;;;26.74;38.49;101018.40;103834;1254;96441;-65
2023/05/20 10:49:21;;;;;;;9.10;4.80;;;;;;;26.88;37.92;101009.33;103242;1252;137342;-63
2023/05/20 10:51:54;;;;;;;10.50;4.70;;;;;;;27.09;37.99;101002.58;103324;1252;106339;-67
2023/05/20 10:54:21;;;;;;;8.30;4.80;;;;;;;27.29;38.20;100996.36;103448;1252;137653;-68
2023/05/20 10:56:54;;;;;;;12.40;5.30;;;;;;;27.54;38.12;100996.02;103432;1252;108178;-67
2023/05/20 10:59:22;;;;;;;8.10;4.80;;;;;;;27.68;37.61;100996.22;103565;1252;137838;-67
2023/05/20 11:01:50;;;;;;;14.30;5.00;;;;;;;27.70;37.00;100995.17;104305;1252;109768;-66
2023/05/20 11:04:18;;;;;;;7.90;4.20;;;;;;;27.61;36.82;100994.31;103381;1253;108173;-66
2023/05/20 11:06:54;;;;;;;7.40;4.60;;;;;;;27.46;36.38;100993.90;103217;1252;137643;-66
2023/05/20 11:09:21;;;;;;;9.30;4.80;;;;;;;27.14;36.62;100992.39;103752;1252;109208;-68
2023/05/20 11:11:49;;;;;;;12.00;4.90;;;;;;;26.93;36.64;100989.41;103212;1252;137912;-62
2023/05/20 11:14:18;;;;;;;9.80;4.80;;;;;;;26.66;37.30;100988.75;103332;1252;111848;-63